Time;durP1;ratioP1;P1;durP2;ratioP2;P2;SDS_P1;SDS_P2;PMS_P1;PMS_P2;Temp;Humidity;BMP_temperature;BMP_pressure;BME280_temperature;BME280_humidity;BME280_pressure;Samples;Min_cycle;Max_cycle;Signal;HPM_P1;HPM_P2
2022/02/06 00:00:34;;;;;;;9.18;2.13;;;8.10;51.00;;;;;;5028074;28;20450;-78
2022/02/06 00:03:00;;;;;;;8.20;2.40;;;8.00;51.80;;;;;;5019873;28;20424;-77
2022/02/06 00:05:25;;;;;;;8.65;2.30;;;8.00;53.00;;;;;;4996987;28;20461;-78
2022/02/06 00:07:51;;;;;;;8.95;2.65;;;7.90;52.90;;;;;;4993329;28;20784;-78
2022/02/06 00:10:18;;;;;;;6.00;2.10;;;7.90;54.00;;;;;;5003574;28;20397;-78
2022/02/06 00:12:44;;;;;;;7.25;2.17;;;7.90;53.80;;;;;;5012647;28;20391;-78
2022/02/06 00:15:10;;;;;;;6.70;2.60;;;7.90;54.50;;;;;;5012627;28;20384;-77
2022/02/06 00:17:36;;;;;;;7.82;2.50;;;7.90;54.10;;;;;;5012551;28;20400;-77
2022/02/06 00:20:04;;;;;;;10.23;2.30;;;7.90;54.20;;;;;;5011098;28;20484;-77
2022/02/06 00:22:44;;;;;;;12.63;2.70;;;7.90;53.20;;;;;;5012501;28;20450;-78
2022/02/06 00:25:20;;;;;;;9.43;2.58;;;7.90;54.30;;;;;;5012696;28;20392;-78
2022/02/06 00:27:57;;;;;;;10.40;2.80;;;7.90;53.90;;;;;;5012327;28;20492;-77
2022/02/06 00:30:30;;;;;;;9.57;2.40;;;7.90;53.40;;;;;;5012059;28;20477;-79
2022/02/06 00:38:26;;;;;;;5.88;2.40;;;7.90;53.30;;;;;;5026923;28;20389;-79
2022/02/06 00:41:13;;;;;;;8.65;3.28;;;7.90;53.10;;;;;;5029085;28;20430;-77
2022/02/06 00:43:39;;;;;;;11.18;2.38;;;7.90;52.80;;;;;;5027265;28;20388;-76
2022/02/06 00:46:07;;;;;;;8.48;2.95;;;8.00;52.60;;;;;;5025511;28;20401;-76
2022/02/06 00:48:37;;;;;;;10.13;3.20;;;8.00;51.70;;;;;;5025595;28;20408;-79
2022/02/06 00:51:10;;;;;;;9.77;2.60;;;8.00;52.10;;;;;;5025605;28;20391;-79
2022/02/06 00:53:36;;;;;;;9.40;2.40;;;8.00;51.50;;;;;;5027094;28;20447;-79
2022/02/06 00:56:01;;;;;;;11.18;2.90;;;8.00;51.50;;;;;;5007181;28;20393;-79
2022/02/06 00:58:27;;;;;;;7.95;2.35;;;8.00;51.30;;;;;;5021549;28;20393;-75
2022/02/06 01:00:52;;;;;;;9.45;2.58;;;8.00;50.50;;;;;;5022155;28;20404;-79
2022/02/06 01:03:18;;;;;;;7.47;2.50;;;8.10;50.50;;;;;;5023345;28;20478;-77
2022/02/06 01:05:43;;;;;;;10.57;3.00;;;8.10;49.00;;;;;;5023402;28;20425;-76
2022/02/06 01:08:09;;;;;;;10.77;2.53;;;8.10;49.60;;;;;;5022189;28;20417;-77
2022/02/06 01:10:35;;;;;;;8.90;2.60;;;8.10;49.60;;;;;;5022109;28;20912;-77
2022/02/06 01:13:14;;;;;;;9.10;2.50;;;8.10;49.00;;;;;;5022769;28;20400;-77
2022/02/06 01:15:46;;;;;;;6.30;2.30;;;8.20;47.80;;;;;;5003927;28;20858;-76
2022/02/06 01:18:20;;;;;;;6.25;2.30;;;8.20;48.00;;;;;;5012922;28;20400;-77
2022/02/06 01:20:54;;;;;;;14.50;3.50;;;8.30;48.60;;;;;;4994658;28;20451;-76
2022/02/06 01:23:28;;;;;;;7.93;2.80;;;8.20;48.20;;;;;;5017080;28;20428;-76
2022/02/06 01:25:59;;;;;;;10.65;2.35;;;8.30;47.90;;;;;;5008477;28;20441;-76
2022/02/06 01:28:42;;;;;;;6.38;2.53;;;8.30;47.80;;;;;;5012204;28;20471;-78
2022/02/06 01:33:56;;;;;;;10.35;2.78;;;8.30;49.50;;;;;;5030046;28;20479;-81
2022/02/06 01:36:34;;;;;;;9.57;3.10;;;8.30;49.10;;;;;;5030452;28;20399;-82
2022/02/06 01:41:31;;;;;;;10.97;3.10;;;8.30;49.00;;;;;;5016199;28;20460;-85
2022/02/06 01:44:12;;;;;;;8.00;3.10;;;8.40;49.40;;;;;;4998832;28;20420;-86
2022/02/06 01:57:06;;;;;;;12.50;3.20;;;8.30;49.80;;;;;;4999718;28;20422;-85
2022/02/06 02:03:43;;;;;;;7.53;3.22;;;8.40;51.30;;;;;;5015152;28;20440;-82
2022/02/06 02:09:24;;;;;;;9.85;3.60;;;8.30;51.40;;;;;;5026564;28;20443;-83
2022/02/06 02:12:08;;;;;;;9.57;3.03;;;8.20;54.10;;;;;;5026322;28;20422;-83
2022/02/06 02:15:11;;;;;;;15.13;3.33;;;8.20;54.10;;;;;;5009444;28;20403;-83
2022/02/06 02:23:25;;;;;;;8.55;3.30;;;8.20;55.10;;;;;;5012078;28;20390;-83
2022/02/06 02:33:42;;;;;;;9.45;2.92;;;8.20;55.10;;;;;;5046917;28;20403;-84
2022/02/06 02:46:36;;;;;;;10.98;3.20;;;8.10;58.30;;;;;;5021965;28;20397;-84
2022/02/06 02:49:02;;;;;;;9.60;3.50;;;8.20;57.70;;;;;;4989754;28;20406;-82
2022/02/06 02:51:34;;;;;;;13.45;3.28;;;8.10;58.00;;;;;;5022564;28;20397;-82
2022/02/06 02:54:06;;;;;;;15.55;3.53;;;8.20;58.00;;;;;;5010104;28;20415;-82
2022/02/06 02:56:47;;;;;;;15.02;3.40;;;8.10;58.90;;;;;;5027154;28;20455;-84
2022/02/06 02:59:24;;;;;;;10.18;3.20;;;8.20;57.80;;;;;;5028831;28;20417;-83
2022/02/06 03:01:58;;;;;;;10.57;2.88;;;8.20;57.00;;;;;;5031536;28;20400;-84
2022/02/06 03:04:24;;;;;;;17.67;3.10;;;8.20;57.70;;;;;;5027082;28;20436;-81
2022/02/06 03:06:50;;;;;;;9.23;3.07;;;8.20;58.40;;;;;;5027294;28;20456;-82
2022/02/06 03:09:17;;;;;;;15.50;3.78;;;8.20;59.30;;;;;;5027346;28;20413;-83
2022/02/06 03:11:42;;;;;;;8.73;2.60;;;8.10;58.50;;;;;;5023301;28;20397;-82
2022/02/06 03:14:13;;;;;;;12.10;3.05;;;8.20;58.70;;;;;;5025436;28;20901;-83
2022/02/06 03:16:48;;;;;;;14.40;3.30;;;8.20;58.70;;;;;;5026823;28;20426;-83
2022/02/06 03:19:17;;;;;;;13.77;3.70;;;8.20;60.10;;;;;;5027176;28;20418;-83
2022/02/06 03:21:45;;;;;;;9.98;3.05;;;8.20;60.00;;;;;;5008681;28;20396;-83
2022/02/06 03:26:42;;;;;;;19.20;3.47;;;8.20;60.20;;;;;;5040689;28;20397;-83
2022/02/06 03:29:08;;;;;;;15.50;3.67;;;8.20;61.20;;;;;;5025281;28;20444;-80
2022/02/06 03:31:37;;;;;;;10.65;3.20;;;8.10;61.40;;;;;;5024585;28;20448;-80
2022/02/06 03:34:03;;;;;;;11.50;3.10;;;8.20;61.40;;;;;;5025162;28;20391;-83
2022/02/06 03:36:28;;;;;;;11.40;3.30;;;8.10;61.80;;;;;;5007327;28;20396;-82
2022/02/06 03:38:54;;;;;;;12.63;2.80;;;8.20;60.80;;;;;;5024258;28;20401;-83
2022/02/06 03:41:21;;;;;;;11.93;3.35;;;8.20;61.40;;;;;;5009225;28;20412;-83
2022/02/06 03:44:00;;;;;;;9.60;2.80;;;8.20;60.30;;;;;;5010075;28;20393;-83
2022/02/06 03:46:39;;;;;;;9.75;3.03;;;8.20;61.70;;;;;;5027315;28;20389;-83
2022/02/06 03:49:13;;;;;;;12.83;3.20;;;8.10;62.30;;;;;;5031211;28;20451;-84
2022/02/06 03:51:39;;;;;;;8.68;2.80;;;8.10;62.90;;;;;;5018072;28;20388;-87
2022/02/06 03:54:08;;;;;;;11.90;3.30;;;8.20;62.00;;;;;;5020211;28;20403;-86
2022/02/06 03:56:34;;;;;;;7.40;3.00;;;8.10;64.80;;;;;;5033868;28;20427;-84
2022/02/06 03:59:02;;;;;;;11.30;3.10;;;8.10;64.00;;;;;;5034036;28;20416;-83
2022/02/06 04:01:29;;;;;;;13.30;3.37;;;8.10;65.90;;;;;;5034284;28;20393;-83
2022/02/06 04:03:54;;;;;;;7.45;2.95;;;8.10;64.90;;;;;;5032242;28;20408;-84
2022/02/06 04:06:20;;;;;;;9.77;3.63;;;8.10;65.10;;;;;;5034034;28;20751;-83
2022/02/06 04:08:47;;;;;;;7.10;2.80;;;8.10;66.60;;;;;;5029408;28;20465;-84
2022/02/06 04:11:19;;;;;;;8.50;3.00;;;8.10;66.90;;;;;;5000561;28;20393;-82
2022/02/06 04:16:39;;;;;;;11.30;2.90;;;8.10;65.60;;;;;;5037167;28;20419;-85
2022/02/06 04:19:16;;;;;;;6.88;2.80;;;8.00;67.00;;;;;;5034815;28;20463;-83
2022/02/06 04:21:42;;;;;;;8.40;3.00;;;8.00;68.80;;;;;;5038131;28;20455;-83
2022/02/06 04:24:08;;;;;;;8.55;3.53;;;8.00;71.90;;;;;;5024845;28;20388;-83
2022/02/06 04:26:33;;;;;;;12.57;3.60;;;8.00;72.10;;;;;;5025327;28;20468;-83
2022/02/06 04:28:59;;;;;;;7.22;2.55;;;7.90;74.10;;;;;;5010864;28;20411;-83
2022/02/06 04:31:24;;;;;;;7.75;3.20;;;7.90;76.30;;;;;;5010181;28;20408;-82
2022/02/06 04:33:51;;;;;;;14.95;3.60;;;7.90;77.00;;;;;;5028549;28;20421;-82
2022/02/06 04:36:17;;;;;;;11.55;3.25;;;7.90;76.40;;;;;;5035334;28;20411;-80
2022/02/06 04:44:20;;;;;;;9.73;3.10;;;7.90;77.70;;;;;;5032018;28;20418;-83
2022/02/06 05:11:23;;;;;;;11.20;3.22;;;8.00;75.80;;;;;;5027950;28;20415;-77
2022/02/06 05:29:20;;;;;;;10.97;2.97;;;8.00;72.90;;;;;;5006468;28;20447;-79
2022/02/06 05:34:14;;;;;;;10.38;3.50;;;8.20;71.30;;;;;;5018700;28;20396;-79
2022/02/06 05:36:40;;;;;;;11.60;3.00;;;8.10;71.90;;;;;;5001620;28;20397;-79
2022/02/06 05:39:05;;;;;;;6.45;2.70;;;8.20;70.50;;;;;;5027199;28;20401;-78
2022/02/06 05:41:31;;;;;;;7.20;2.80;;;8.20;68.60;;;;;;5029907;28;20463;-76
2022/02/06 05:43:57;;;;;;;7.28;2.97;;;8.20;68.70;;;;;;5021552;28;20397;-77
2022/02/06 05:46:23;;;;;;;9.60;3.10;;;8.20;68.40;;;;;;5016335;28;20419;-78
2022/02/06 05:48:48;;;;;;;8.27;2.50;;;8.20;70.60;;;;;;5032387;28;20408;-77
2022/02/06 05:51:14;;;;;;;7.40;2.77;;;8.20;69.00;;;;;;5035135;28;20392;-77
2022/02/06 05:53:41;;;;;;;8.45;2.80;;;8.30;69.30;;;;;;5025272;28;20399;-79
2022/02/06 05:56:07;;;;;;;7.30;2.20;;;8.20;69.50;;;;;;5021841;28;20397;-79
2022/02/06 05:58:32;;;;;;;4.53;2.00;;;8.30;67.70;;;;;;5021648;28;20389;-80
2022/02/06 06:00:58;;;;;;;6.00;2.17;;;8.30;67.00;;;;;;5021918;28;20403;-79
2022/02/06 06:03:24;;;;;;;10.00;2.90;;;8.30;70.00;;;;;;5023824;28;20388;-77
2022/02/06 06:05:49;;;;;;;4.05;2.47;;;8.30;69.70;;;;;;5033190;28;20400;-77
2022/02/06 06:08:15;;;;;;;5.90;2.30;;;8.30;69.40;;;;;;5023523;28;20435;-79
2022/02/06 06:10:42;;;;;;;7.32;2.42;;;8.30;68.50;;;;;;5022748;28;20389;-77
2022/02/06 06:13:09;;;;;;;5.60;2.50;;;8.30;69.00;;;;;;5033228;28;20373;-77
2022/02/06 06:15:35;;;;;;;6.53;2.70;;;8.30;69.20;;;;;;5034964;28;20498;-76
2022/02/06 06:18:04;;;;;;;3.40;2.50;;;8.30;68.70;;;;;;5033086;28;20405;-77
2022/02/06 06:20:32;;;;;;;7.43;2.45;;;8.30;70.90;;;;;;5016475;28;20611;-76
2022/02/06 06:22:58;;;;;;;7.50;2.50;;;8.30;69.50;;;;;;5007881;28;20405;-79
2022/02/06 06:25:26;;;;;;;5.70;2.20;;;8.30;70.10;;;;;;5020998;28;20408;-79
2022/02/06 06:27:52;;;;;;;5.70;2.10;;;8.30;69.70;;;;;;5025123;28;20917;-79
2022/02/06 06:30:18;;;;;;;5.35;2.28;;;8.40;67.60;;;;;;5008531;28;20464;-78
2022/02/06 06:32:43;;;;;;;5.10;2.00;;;8.40;68.20;;;;;;5039591;28;20406;-79
2022/02/06 06:35:09;;;;;;;8.48;2.50;;;8.30;69.20;;;;;;5008744;28;20429;-79
2022/02/06 06:37:39;;;;;;;6.05;2.65;;;8.40;70.30;;;;;;5030678;28;20408;-79
2022/02/06 06:40:06;;;;;;;2.10;1.95;;;8.40;69.90;;;;;;5015791;28;20403;-78
2022/02/06 06:42:31;;;;;;;8.38;3.10;;;8.30;71.40;;;;;;5033118;28;20385;-79
2022/02/06 06:44:57;;;;;;;5.30;2.25;;;8.30;72.90;;;;;;5033507;28;20402;-76
2022/02/06 06:47:22;;;;;;;4.72;2.30;;;8.30;71.80;;;;;;5009752;28;20408;-77
2022/02/06 06:49:48;;;;;;;5.90;2.20;;;8.30;74.20;;;;;;5034807;28;20419;-75
2022/02/06 06:52:14;;;;;;;5.55;2.55;;;8.40;72.80;;;;;;5020220;28;20417;-77
2022/02/06 06:54:44;;;;;;;3.78;2.10;;;8.30;73.00;;;;;;5032203;28;20392;-76
2022/02/06 06:57:19;;;;;;;9.27;2.70;;;8.40;73.00;;;;;;5013998;28;20428;-75
2022/02/06 07:04:57;;;;;;;7.68;2.55;;;8.40;72.30;;;;;;5028252;28;20377;-76
2022/02/06 07:07:24;;;;;;;7.18;2.70;;;8.50;70.10;;;;;;5036957;28;20413;-76
2022/02/06 07:09:49;;;;;;;5.13;2.60;;;8.40;70.60;;;;;;5034297;28;20396;-76
2022/02/06 07:12:15;;;;;;;8.52;2.40;;;8.50;70.10;;;;;;5023453;28;20384;-78
2022/02/06 07:14:45;;;;;;;10.00;2.92;;;8.50;69.40;;;;;;5039469;28;20472;-76
2022/02/06 07:17:11;;;;;;;7.65;2.55;;;8.50;68.60;;;;;;5034435;28;20424;-77
2022/02/06 07:19:38;;;;;;;8.05;2.60;;;8.50;68.60;;;;;;5033552;28;20388;-76
2022/02/06 07:22:05;;;;;;;7.70;2.43;;;8.50;69.80;;;;;;5032078;28;20427;-77
2022/02/06 07:24:32;;;;;;;5.18;2.30;;;8.50;69.50;;;;;;5033455;28;20396;-76
2022/02/06 07:27:01;;;;;;;5.88;2.50;;;8.60;67.90;;;;;;5030639;28;20779;-78
2022/02/06 07:29:27;;;;;;;6.32;2.33;;;8.50;69.70;;;;;;5023504;28;20404;-80
2022/02/06 07:31:55;;;;;;;5.63;2.30;;;8.50;69.70;;;;;;5022080;28;20890;-78
2022/02/06 07:34:20;;;;;;;6.85;2.55;;;8.50;69.70;;;;;;5023447;28;20377;-79
2022/02/06 07:36:46;;;;;;;7.37;2.70;;;8.50;69.70;;;;;;5007841;28;20408;-78
2022/02/06 07:39:12;;;;;;;7.47;2.73;;;8.50;70.00;;;;;;5024734;28;20396;-80
2022/02/06 07:41:37;;;;;;;4.57;2.13;;;8.50;68.70;;;;;;5025863;28;20416;-78
2022/02/06 07:44:03;;;;;;;6.17;2.60;;;8.50;70.10;;;;;;5014088;28;20405;-77
2022/02/06 07:46:42;;;;;;;3.03;2.05;;;8.50;71.60;;;;;;5003242;28;20399;-79
2022/02/06 07:49:08;;;;;;;3.50;2.20;;;8.50;71.40;;;;;;5009458;28;20418;-76
2022/02/06 07:51:35;;;;;;;4.40;1.80;;;8.50;72.00;;;;;;5020194;28;20499;-77
2022/02/06 07:54:01;;;;;;;6.18;2.25;;;8.50;71.60;;;;;;5005875;28;20396;-79
2022/02/06 07:56:27;;;;;;;4.13;1.87;;;8.50;70.60;;;;;;5005300;28;20404;-80
2022/02/06 07:58:52;;;;;;;5.63;1.83;;;8.50;70.80;;;;;;5023845;28;20393;-79
2022/02/06 08:01:18;;;;;;;3.72;1.70;;;8.50;69.10;;;;;;5018847;28;20889;-78
2022/02/06 08:03:43;;;;;;;2.67;1.50;;;8.50;71.70;;;;;;5019076;28;20933;-79
2022/02/06 08:06:10;;;;;;;4.85;1.90;;;8.60;70.50;;;;;;5000570;28;20480;-79
2022/02/06 08:08:36;;;;;;;3.47;1.88;;;8.60;69.70;;;;;;5018517;28;20408;-80
2022/02/06 08:11:03;;;;;;;3.37;1.63;;;8.60;68.70;;;;;;5018593;28;20401;-78
2022/02/06 08:13:53;;;;;;;4.10;1.60;;;8.50;70.10;;;;;;5013895;28;20408;-78
2022/02/06 08:16:15;;;;;;;4.70;1.60;;;8.60;68.80;;;;;;5008079;28;20442;-76
2022/02/06 08:18:41;;;;;;;1.50;1.30;;;8.60;70.10;;;;;;5005521;28;20390;-76
2022/02/06 08:21:08;;;;;;;3.15;1.40;;;8.60;69.30;;;;;;5012563;28;20592;-78
2022/02/06 08:23:34;;;;;;;4.38;1.38;;;8.60;69.40;;;;;;5009699;28;20427;-80
2022/02/06 08:26:00;;;;;;;2.42;1.67;;;8.60;69.20;;;;;;5025056;28;20400;-77
2022/02/06 08:28:26;;;;;;;2.13;1.30;;;8.60;69.20;;;;;;5022314;28;20756;-76
2022/02/06 08:30:52;;;;;;;2.17;1.33;;;8.60;68.00;;;;;;5017459;28;20397;-77
2022/02/06 08:33:17;;;;;;;3.35;1.30;;;8.60;68.10;;;;;;5011817;28;20407;-76
2022/02/06 08:35:45;;;;;;;3.00;1.27;;;8.70;68.30;;;;;;5010767;28;20782;-77
2022/02/06 08:38:12;;;;;;;1.70;1.20;;;8.70;67.40;;;;;;4998206;28;20408;-77
2022/02/06 08:40:39;;;;;;;3.60;1.10;;;8.70;69.30;;;;;;5024688;28;20407;-76
2022/02/06 08:43:04;;;;;;;3.92;1.23;;;8.70;68.20;;;;;;5030275;28;20402;-76
2022/02/06 08:45:30;;;;;;;1.97;1.00;;;8.70;68.70;;;;;;5021747;28;20819;-76
2022/02/06 08:47:56;;;;;;;2.78;1.20;;;8.70;68.10;;;;;;5022040;28;20407;-76
2022/02/06 08:50:22;;;;;;;3.20;1.10;;;8.80;67.60;;;;;;5020751;28;20433;-76
2022/02/06 08:52:48;;;;;;;1.70;1.20;;;8.80;66.50;;;;;;5028168;28;20387;-77
2022/02/06 08:55:14;;;;;;;3.30;1.30;;;8.80;66.70;;;;;;5037068;28;20445;-78
2022/02/06 08:57:47;;;;;;;2.63;1.20;;;8.90;65.90;;;;;;5023895;28;20400;-77
2022/02/06 09:00:20;;;;;;;3.47;1.30;;;8.90;65.80;;;;;;5009877;28;20408;-77
2022/02/06 09:02:46;;;;;;;2.10;1.10;;;8.90;66.30;;;;;;5027692;28;20438;-77
2022/02/06 09:05:12;;;;;;;2.80;1.10;;;8.90;66.00;;;;;;5019240;28;20487;-76
2022/02/06 09:07:42;;;;;;;2.95;1.30;;;8.90;66.60;;;;;;5017024;28;20446;-77
2022/02/06 09:10:09;;;;;;;1.60;1.10;;;8.90;67.60;;;;;;5013364;28;20393;-76
2022/02/06 09:12:36;;;;;;;4.97;1.53;;;8.90;64.70;;;;;;5016589;28;20432;-77
2022/02/06 09:15:03;;;;;;;2.40;1.20;;;8.90;66.00;;;;;;5009358;28;20404;-77
2022/02/06 09:17:28;;;;;;;2.47;1.08;;;9.00;65.10;;;;;;5025215;28;20466;-78
2022/02/06 09:19:54;;;;;;;4.50;1.20;;;9.00;66.60;;;;;;5028822;28;20393;-78
2022/02/06 09:22:20;;;;;;;3.92;1.15;;;9.00;65.10;;;;;;5017725;28;20454;-78
2022/02/06 09:24:46;;;;;;;1.77;1.00;;;9.00;65.00;;;;;;5027963;28;20404;-78
2022/02/06 09:27:12;;;;;;;2.42;1.23;;;9.00;66.80;;;;;;5037448;28;20435;-79
2022/02/06 09:29:39;;;;;;;3.08;1.20;;;9.00;67.50;;;;;;5025563;28;20533;-79
2022/02/06 09:37:08;;;;;;;2.40;1.30;;;9.00;70.20;;;;;;5017701;28;20471;-79
2022/02/06 09:39:38;;;;;;;2.00;1.10;;;8.90;71.60;;;;;;5023992;28;20407;-79
2022/02/06 09:42:05;;;;;;;3.47;1.00;;;8.90;72.50;;;;;;5032560;28;20406;-78
2022/02/06 09:44:31;;;;;;;1.30;1.20;;;8.90;73.50;;;;;;5043048;28;20403;-80
2022/02/06 09:46:58;;;;;;;1.40;1.20;;;8.90;72.70;;;;;;5024549;28;20496;-78
2022/02/06 09:49:26;;;;;;;2.83;1.13;;;8.80;74.70;;;;;;5036031;28;20566;-76
2022/02/06 09:51:52;;;;;;;1.65;0.85;;;8.80;75.20;;;;;;5029655;28;20845;-77
2022/02/06 09:54:20;;;;;;;1.40;1.10;;;8.80;75.50;;;;;;5048178;28;20403;-76
2022/02/06 09:56:50;;;;;;;1.20;1.10;;;8.80;73.30;;;;;;5050632;28;20462;-76
2022/02/06 09:59:20;;;;;;;2.20;1.10;;;8.80;73.00;;;;;;5036805;28;20401;-77
2022/02/06 10:01:51;;;;;;;2.50;1.00;;;8.80;72.30;;;;;;5047665;28;20441;-77
2022/02/06 10:04:19;;;;;;;2.30;1.03;;;8.80;70.50;;;;;;5044438;28;20987;-78
2022/02/06 10:06:49;;;;;;;1.20;1.10;;;8.80;72.00;;;;;;5049485;28;20406;-78
2022/02/06 10:09:18;;;;;;;2.45;1.60;;;8.80;71.30;;;;;;5050389;28;20449;-76
2022/02/06 10:11:46;;;;;;;2.30;1.10;;;8.70;71.70;;;;;;5039877;28;20424;-81
2022/02/06 10:14:12;;;;;;;2.95;1.10;;;8.80;71.30;;;;;;5036602;28;20872;-79
2022/02/06 10:16:39;;;;;;;1.00;0.90;;;8.70;72.00;;;;;;5037471;28;20406;-79
2022/02/06 10:19:04;;;;;;;3.00;0.90;;;8.70;73.50;;;;;;5035054;28;20450;-77
2022/02/06 10:21:32;;;;;;;4.70;1.20;;;8.70;70.50;;;;;;5037770;28;20421;-78
2022/02/06 10:29:23;;;;;;;2.20;0.90;;;8.70;73.00;;;;;;5032825;28;20465;-79
2022/02/06 10:31:59;;;;;;;2.53;1.00;;;8.70;72.10;;;;;;5024662;28;20415;-78
2022/02/06 10:34:28;;;;;;;3.80;1.00;;;8.60;72.50;;;;;;5039822;28;20401;-79
2022/02/06 10:37:12;;;;;;;2.00;1.10;;;8.60;75.90;;;;;;5043014;28;20489;-78
2022/02/06 10:39:48;;;;;;;1.60;1.00;;;8.60;73.10;;;;;;5038994;28;20408;-79
2022/02/06 10:42:24;;;;;;;1.40;0.90;;;8.70;70.50;;;;;;5015369;28;20397;-81
2022/02/06 10:45:11;;;;;;;2.20;0.90;;;8.80;67.80;;;;;;5039107;28;20744;-79
2022/02/06 10:47:37;;;;;;;3.30;0.80;;;8.70;68.90;;;;;;5035099;28;20496;-77
2022/02/06 10:50:30;;;;;;;1.70;0.90;;;8.80;68.30;;;;;;5038993;28;20488;-76
2022/02/06 10:53:13;;;;;;;1.67;1.00;;;8.70;68.80;;;;;;5042297;28;20387;-76
2022/02/06 10:56:01;;;;;;;2.10;0.90;;;8.70;70.80;;;;;;5043000;28;20404;-78
2022/02/06 10:58:35;;;;;;;2.25;1.20;;;8.70;70.40;;;;;;5023297;28;20423;-79
2022/02/06 11:01:21;;;;;;;4.03;0.98;;;8.70;71.70;;;;;;5013966;28;20438;-78
2022/02/06 11:03:50;;;;;;;1.80;0.82;;;8.70;71.70;;;;;;5043923;28;20463;-79
2022/02/06 11:06:43;;;;;;;1.50;0.90;;;8.70;72.00;;;;;;5040830;28;20427;-76
2022/02/06 11:09:41;;;;;;;1.10;0.88;;;8.70;71.10;;;;;;5041927;28;20418;-78
2022/02/06 11:12:19;;;;;;;1.00;0.80;;;8.70;70.80;;;;;;5010752;28;20405;-79
2022/02/06 11:14:47;;;;;;;3.20;1.30;;;8.70;70.40;;;;;;5011215;28;20399;-79
2022/02/06 11:17:25;;;;;;;2.70;1.10;;;8.70;72.10;;;;;;5036992;28;20486;-80
2022/02/06 11:20:11;;;;;;;1.50;0.90;;;8.60;73.10;;;;;;5022525;28;20481;-77
2022/02/06 11:22:51;;;;;;;1.20;0.90;;;8.70;71.50;;;;;;5029506;28;20398;-80
2022/02/06 11:25:17;;;;;;;2.30;1.00;;;8.70;74.00;;;;;;5037581;28;20402;-79
2022/02/06 11:27:43;;;;;;;3.13;0.90;;;8.60;75.20;;;;;;5018516;28;20407;-78
2022/02/06 11:30:09;;;;;;;1.00;0.90;;;8.60;74.30;;;;;;5033355;28;20421;-79
2022/02/06 11:32:37;;;;;;;2.90;1.00;;;8.70;73.60;;;;;;5040163;28;20399;-79
2022/02/06 11:35:10;;;;;;;1.90;1.00;;;8.70;74.90;;;;;;5039579;28;20441;-78
2022/02/06 11:43:49;;;;;;;3.50;1.10;;;8.70;74.50;;;;;;5036389;28;20405;-78
2022/02/06 11:46:37;;;;;;;1.50;0.90;;;8.60;77.20;;;;;;5038307;28;20410;-78
2022/02/06 11:49:11;;;;;;;1.20;0.90;;;8.60;76.60;;;;;;5045646;28;20457;-77
2022/02/06 11:51:36;;;;;;;2.30;1.08;;;8.60;75.50;;;;;;5047408;28;20391;-80
2022/02/06 11:54:31;;;;;;;1.15;0.90;;;8.60;77.90;;;;;;5042566;28;20403;-78
2022/02/06 11:57:18;;;;;;;1.20;0.93;;;8.60;76.10;;;;;;5039729;28;20429;-80
2022/02/06 12:00:02;;;;;;;2.05;0.80;;;8.60;75.50;;;;;;5033030;28;20394;-77
2022/02/06 12:02:30;;;;;;;1.50;0.80;;;8.60;75.40;;;;;;5026202;28;20524;-77
2022/02/06 12:05:19;;;;;;;3.60;0.83;;;8.60;75.20;;;;;;5047258;28;20471;-77
2022/02/06 12:08:06;;;;;;;2.03;0.90;;;8.60;76.80;;;;;;5049492;28;20403;-76
2022/02/06 12:10:32;;;;;;;1.40;0.90;;;8.70;75.20;;;;;;5046310;28;20400;-77
2022/02/06 12:13:20;;;;;;;1.40;0.80;;;8.70;74.00;;;;;;5026535;28;20443;-77
2022/02/06 12:15:51;;;;;;;1.70;0.90;;;8.70;75.10;;;;;;5012651;28;20398;-78
2022/02/06 12:18:37;;;;;;;2.50;0.80;;;8.70;75.80;;;;;;5025975;28;20405;-78
2022/02/06 12:21:18;;;;;;;2.70;1.10;;;8.70;76.10;;;;;;5034206;28;20405;-77
2022/02/06 12:23:55;;;;;;;2.30;1.00;;;8.70;78.20;;;;;;5032603;28;20397;-79
2022/02/06 12:26:30;;;;;;;2.30;0.80;;;8.70;79.00;;;;;;5024797;28;20400;-78
2022/02/06 12:29:03;;;;;;;3.60;0.80;;;8.80;77.20;;;;;;5025740;28;20489;-78
2022/02/06 12:31:34;;;;;;;2.60;1.00;;;8.90;78.70;;;;;;5038453;28;20559;-78
2022/02/06 12:39:41;;;;;;;1.90;1.00;;;8.90;78.50;;;;;;5012573;28;20398;-77
2022/02/06 12:42:09;;;;;;;3.47;0.90;;;9.00;80.80;;;;;;5019077;28;20397;-77
2022/02/06 12:44:36;;;;;;;1.60;0.73;;;9.00;81.50;;;;;;5025851;28;20393;-77
2022/02/06 12:47:09;;;;;;;1.60;0.87;;;9.10;82.50;;;;;;5026858;28;20522;-76
2022/02/06 12:49:35;;;;;;;1.70;0.80;;;9.10;83.30;;;;;;5019095;28;20696;-78
2022/02/06 12:52:02;;;;;;;1.95;1.00;;;9.10;83.00;;;;;;5034701;28;20411;-77
2022/02/06 12:54:28;;;;;;;1.50;0.90;;;9.20;84.10;;;;;;5037575;28;20397;-77
2022/02/06 12:56:58;;;;;;;2.70;1.00;;;9.20;85.10;;;;;;5030801;28;20407;-77
2022/02/06 12:59:27;;;;;;;2.10;0.90;;;9.20;86.20;;;;;;5040874;28;20393;-77
2022/02/06 13:01:55;;;;;;;3.30;0.95;;;9.20;88.60;;;;;;5034380;28;20472;-77
2022/02/06 13:04:26;;;;;;;1.10;0.80;;;9.20;92.40;;;;;;5032452;28;20453;-77
2022/02/06 13:06:52;;;;;;;1.70;1.20;;;9.20;93.40;;;;;;5032247;28;20395;-77
2022/02/06 13:09:30;;;;;;;2.20;0.90;;;9.20;93.70;;;;;;5015526;28;20778;-78
2022/02/06 13:14:52;;;;;;;3.90;1.00;;;9.20;98.60;;;;;;5029719;28;20404;-79
2022/02/06 13:22:46;;;;;;;0.90;0.55;;;8.00;97.10;;;;;;5016959;28;20486;-77
2022/02/06 13:36:40;;;;;;;2.53;0.98;;;7.20;99.90;;;;;;5083184;28;20189;-76
2022/02/06 13:39:14;;;;;;;2.10;0.90;;;7.10;99.90;;;;;;5081459;28;20887;-77
2022/02/06 13:41:40;;;;;;;1.75;0.90;;;7.20;99.90;;;;;;5092267;28;20972;-76
2022/02/06 13:44:23;;;;;;;1.17;0.70;;;7.20;99.90;;;;;;5082495;28;20201;-79
2022/02/06 13:46:52;;;;;;;1.80;0.88;;;7.20;99.90;;;;;;5095361;28;20208;-79
2022/02/06 13:49:48;;;;;;;1.60;0.80;;;7.20;99.90;;;;;;5095860;28;20643;-77
2022/02/06 13:52:16;;;;;;;1.27;0.63;;;7.10;99.90;;;;;;5098897;28;20208;-76
2022/02/06 13:54:47;;;;;;;1.60;0.80;;;7.10;99.90;;;;;;5093916;28;20398;-76
2022/02/06 13:57:13;;;;;;;2.93;0.90;;;7.10;99.90;;;;;;5090723;28;20388;-75
2022/02/06 13:59:42;;;;;;;1.00;0.70;;;7.10;99.90;;;;;;5102060;28;20383;-76
2022/02/06 14:02:09;;;;;;;1.33;1.10;;;7.10;95.80;;;;;;5099552;28;20403;-77
2022/02/06 14:04:38;;;;;;;1.67;0.60;;;7.20;99.10;;;;;;5091210;28;20189;-77
2022/02/06 14:07:15;;;;;;;3.80;0.90;;;7.20;92.60;;;;;;5096921;28;20471;-76
2022/02/06 14:12:08;;;;;;;2.00;0.80;;;7.30;88.20;;;;;;5100692;28;20407;-76
2022/02/06 14:14:35;;;;;;;1.30;0.88;;;7.30;89.20;;;;;;5105327;28;20414;-76
2022/02/06 14:17:04;;;;;;;1.70;0.95;;;7.40;85.90;;;;;;5100996;28;20432;-77
2022/02/06 14:19:43;;;;;;;2.17;0.88;;;7.40;83.20;;;;;;5090785;28;20396;-77
2022/02/06 14:22:10;;;;;;;2.40;1.30;;;7.40;81.80;;;;;;5085515;28;20489;-77
2022/02/06 14:24:53;;;;;;;2.00;1.00;;;7.40;77.70;;;;;;5095041;28;20835;-77
2022/02/06 14:27:39;;;;;;;1.58;0.98;;;7.40;80.40;;;;;;5092643;28;20396;-77
2022/02/06 14:30:11;;;;;;;2.40;1.15;;;7.50;81.60;;;;;;5095193;28;20393;-77
2022/02/06 14:33:03;;;;;;;4.30;1.20;;;7.50;73.50;;;;;;5112478;28;20514;-77
2022/02/06 14:35:52;;;;;;;2.05;1.10;;;7.60;74.30;;;;;;5123035;28;20493;-78
2022/02/06 14:38:23;;;;;;;3.80;1.20;;;7.60;74.90;;;;;;5116153;28;20377;-78
2022/02/06 14:41:04;;;;;;;1.85;1.00;;;7.70;74.60;;;;;;5115578;28;20389;-78
2022/02/06 14:43:38;;;;;;;2.40;1.20;;;7.80;74.40;;;;;;5107479;28;20382;-77
2022/02/06 14:46:05;;;;;;;3.33;1.00;;;7.80;73.90;;;;;;5080442;28;20406;-77
2022/02/06 14:48:30;;;;;;;3.70;0.80;;;7.80;68.50;;;;;;5080142;28;20368;-77
2022/02/06 14:50:57;;;;;;;3.83;1.10;;;7.90;69.80;;;;;;5093051;28;20372;-77
2022/02/06 14:53:23;;;;;;;2.00;1.20;;;8.00;67.60;;;;;;5087841;28;20404;-78
2022/02/06 14:55:53;;;;;;;1.75;1.08;;;8.00;68.20;;;;;;5077505;28;20769;-77
2022/02/06 14:58:19;;;;;;;2.47;1.30;;;7.90;67.10;;;;;;5076348;28;20383;-78
2022/02/06 15:00:45;;;;;;;3.38;1.10;;;7.90;67.60;;;;;;5094550;28;20385;-78
2022/02/06 15:03:13;;;;;;;4.38;1.30;;;7.90;67.90;;;;;;5097087;28;20378;-77
2022/02/06 15:05:40;;;;;;;2.95;1.02;;;8.00;69.70;;;;;;5097301;28;20390;-78
2022/02/06 15:08:06;;;;;;;4.20;1.30;;;7.90;69.10;;;;;;5097574;28;20449;-77
2022/02/06 15:10:34;;;;;;;2.65;1.00;;;7.80;67.80;;;;;;5097663;28;20443;-79
2022/02/06 15:13:02;;;;;;;3.38;1.00;;;7.90;66.60;;;;;;5082723;28;20895;-78
2022/02/06 15:15:33;;;;;;;4.70;1.10;;;7.90;65.90;;;;;;5079168;28;20387;-78
2022/02/06 15:18:08;;;;;;;2.13;0.90;;;7.90;67.60;;;;;;5087713;28;20393;-79
2022/02/06 15:20:34;;;;;;;2.03;1.00;;;7.90;64.40;;;;;;5078130;28;20487;-79
2022/02/06 15:23:11;;;;;;;;;;;;;;;;;;;;;
2022/02/06 15:25:37;;;;;;;2.30;0.90;;;7.90;61.60;;;;;;5100337;28;20509;-79
2022/02/06 15:28:03;;;;;;;1.77;1.00;;;7.90;63.90;;;;;;5096929;28;20755;-79
2022/02/06 15:30:29;;;;;;;2.97;1.10;;;7.90;64.50;;;;;;5096024;28;21454;-79
2022/02/06 15:32:54;;;;;;;2.10;1.20;;;7.90;64.90;;;;;;5091423;28;20524;-79
2022/02/06 15:35:20;;;;;;;4.10;1.90;;;7.90;64.00;;;;;;5103010;28;20469;-79
2022/02/06 15:37:47;;;;;;;3.20;1.83;;;7.90;66.10;;;;;;5090809;28;20394;-79
2022/02/06 15:40:16;;;;;;;1.80;1.20;;;7.90;65.00;;;;;;5091621;28;20421;-79
2022/02/06 15:42:42;;;;;;;3.20;1.10;;;7.90;67.50;;;;;;5085921;28;20399;-80
2022/02/06 15:45:08;;;;;;;4.63;1.42;;;7.90;68.60;;;;;;5095844;28;20414;-80
2022/02/06 15:47:34;;;;;;;3.13;1.90;;;7.90;67.30;;;;;;5087272;28;20395;-78